sensor_id;sensor_type;location;lat;lon;timestamp;temperature;humidity
67157;SHT31;54086;50.126;8.710;2024-03-17T00:01:20;8.99;73.93
67157;SHT31;54086;50.126;8.710;2024-03-17T00:03:45;8.88;73.65
67157;SHT31;54086;50.126;8.710;2024-03-17T00:06:11;8.92;74.00
67157;SHT31;54086;50.126;8.710;2024-03-17T00:08:36;8.99;73.17
67157;SHT31;54086;50.126;8.710;2024-03-17T00:11:03;9.12;73.21
67157;SHT31;54086;50.126;8.710;2024-03-17T00:13:28;9.05;73.59
67157;SHT31;54086;50.126;8.710;2024-03-17T00:15:53;9.08;73.53
67157;SHT31;54086;50.126;8.710;2024-03-17T00:18:19;9.08;73.39
67157;SHT31;54086;50.126;8.710;2024-03-17T00:20:45;9.07;73.10
67157;SHT31;54086;50.126;8.710;2024-03-17T00:23:18;9.04;73.87
67157;SHT31;54086;50.126;8.710;2024-03-17T00:25:43;9.01;74.71
67157;SHT31;54086;50.126;8.710;2024-03-17T00:28:09;9.05;74.78
67157;SHT31;54086;50.126;8.710;2024-03-17T00:30:36;8.95;74.86
67157;SHT31;54086;50.126;8.710;2024-03-17T00:33:02;8.91;75.56
67157;SHT31;54086;50.126;8.710;2024-03-17T00:35:29;8.89;75.49
67157;SHT31;54086;50.126;8.710;2024-03-17T00:37:55;8.92;75.38
67157;SHT31;54086;50.126;8.710;2024-03-17T00:40:21;8.77;75.23
67157;SHT31;54086;50.126;8.710;2024-03-17T00:42:47;8.61;75.88
67157;SHT31;54086;50.126;8.710;2024-03-17T00:45:13;8.40;77.15
67157;SHT31;54086;50.126;8.710;2024-03-17T00:47:38;8.33;77.89
67157;SHT31;54086;50.126;8.710;2024-03-17T00:50:05;8.29;77.57
67157;SHT31;54086;50.126;8.710;2024-03-17T00:52:32;8.37;77.77
67157;SHT31;54086;50.126;8.710;2024-03-17T00:54:58;8.37;77.67
67157;SHT31;54086;50.126;8.710;2024-03-17T00:57:23;8.47;77.43
67157;SHT31;54086;50.126;8.710;2024-03-17T00:59:50;8.41;77.35
67157;SHT31;54086;50.126;8.710;2024-03-17T01:02:15;8.29;77.65
67157;SHT31;54086;50.126;8.710;2024-03-17T01:04:44;8.23;78.21
67157;SHT31;54086;50.126;8.710;2024-03-17T01:07:11;8.30;78.35
67157;SHT31;54086;50.126;8.710;2024-03-17T01:09:36;8.25;78.62
67157;SHT31;54086;50.126;8.710;2024-03-17T01:12:02;8.16;79.01
67157;SHT31;54086;50.126;8.710;2024-03-17T01:14:28;8.22;79.14
67157;SHT31;54086;50.126;8.710;2024-03-17T01:16:55;8.30;79.25
67157;SHT31;54086;50.126;8.710;2024-03-17T01:19:20;8.26;79.52
67157;SHT31;54086;50.126;8.710;2024-03-17T01:21:46;8.30;79.55
67157;SHT31;54086;50.126;8.710;2024-03-17T01:24:12;8.44;79.51
67157;SHT31;54086;50.126;8.710;2024-03-17T01:26:38;8.29;80.16
67157;SHT31;54086;50.126;8.710;2024-03-17T01:29:03;8.22;80.06
67157;SHT31;54086;50.126;8.710;2024-03-17T01:31:29;8.07;80.05
67157;SHT31;54086;50.126;8.710;2024-03-17T01:33:54;8.14;80.16
67157;SHT31;54086;50.126;8.710;2024-03-17T01:36:19;8.17;80.30
67157;SHT31;54086;50.126;8.710;2024-03-17T01:38:49;8.19;80.24
67157;SHT31;54086;50.126;8.710;2024-03-17T01:41:15;7.98;81.08
67157;SHT31;54086;50.126;8.710;2024-03-17T01:43:40;8.00;81.37
67157;SHT31;54086;50.126;8.710;2024-03-17T01:46:10;8.02;81.29
67157;SHT31;54086;50.126;8.710;2024-03-17T01:48:38;7.93;81.60
67157;SHT31;54086;50.126;8.710;2024-03-17T01:51:04;7.96;81.20
67157;SHT31;54086;50.126;8.710;2024-03-17T01:53:29;7.88;81.31
67157;SHT31;54086;50.126;8.710;2024-03-17T01:55:56;7.77;81.90
67157;SHT31;54086;50.126;8.710;2024-03-17T01:58:25;7.52;82.24
67157;SHT31;54086;50.126;8.710;2024-03-17T02:00:50;7.38;82.74
67157;SHT31;54086;50.126;8.710;2024-03-17T02:03:17;7.35;83.32
67157;SHT31;54086;50.126;8.710;2024-03-17T02:05:42;7.32;83.46
67157;SHT31;54086;50.126;8.710;2024-03-17T02:08:10;7.40;82.51
67157;SHT31;54086;50.126;8.710;2024-03-17T02:10:36;7.37;82.96
67157;SHT31;54086;50.126;8.710;2024-03-17T02:13:02;7.30;83.03
67157;SHT31;54086;50.126;8.710;2024-03-17T02:15:28;7.17;83.94
67157;SHT31;54086;50.126;8.710;2024-03-17T02:17:54;7.07;84.19
67157;SHT31;54086;50.126;8.710;2024-03-17T02:20:19;7.06;84.31
67157;SHT31;54086;50.126;8.710;2024-03-17T02:22:45;6.86;84.68
67157;SHT31;54086;50.126;8.710;2024-03-17T02:25:10;6.76;84.88
67157;SHT31;54086;50.126;8.710;2024-03-17T02:27:36;6.80;85.08
67157;SHT31;54086;50.126;8.710;2024-03-17T02:30:02;6.82;85.14
67157;SHT31;54086;50.126;8.710;2024-03-17T02:32:28;6.89;85.18
67157;SHT31;54086;50.126;8.710;2024-03-17T02:34:53;6.85;85.07
67157;SHT31;54086;50.126;8.710;2024-03-17T02:37:20;7.01;84.89
67157;SHT31;54086;50.126;8.710;2024-03-17T02:39:45;7.03;84.67
67157;SHT31;54086;50.126;8.710;2024-03-17T02:42:10;6.85;85.00
67157;SHT31;54086;50.126;8.710;2024-03-17T02:44:37;6.64;85.63
67157;SHT31;54086;50.126;8.710;2024-03-17T02:47:04;6.49;86.29
67157;SHT31;54086;50.126;8.710;2024-03-17T02:49:30;6.41;86.54
67157;SHT31;54086;50.126;8.710;2024-03-17T02:52:07;6.34;86.67
67157;SHT31;54086;50.126;8.710;2024-03-17T02:54:37;6.24;86.84
67157;SHT31;54086;50.126;8.710;2024-03-17T02:57:04;6.24;86.74
67157;SHT31;54086;50.126;8.710;2024-03-17T02:59:30;6.18;86.79
67157;SHT31;54086;50.126;8.710;2024-03-17T03:01:56;6.20;86.91
67157;SHT31;54086;50.126;8.710;2024-03-17T03:04:21;6.18;86.75
67157;SHT31;54086;50.126;8.710;2024-03-17T03:06:47;6.17;86.58
67157;SHT31;54086;50.126;8.710;2024-03-17T03:09:13;6.14;86.70
67157;SHT31;54086;50.126;8.710;2024-03-17T03:11:40;6.11;86.88
67157;SHT31;54086;50.126;8.710;2024-03-17T03:14:06;6.06;87.16
67157;SHT31;54086;50.126;8.710;2024-03-17T03:16:32;5.99;87.18
67157;SHT31;54086;50.126;8.710;2024-03-17T03:18:58;5.94;87.40
67157;SHT31;54086;50.126;8.710;2024-03-17T03:21:24;5.81;87.70
67157;SHT31;54086;50.126;8.710;2024-03-17T03:23:49;5.90;87.55
67157;SHT31;54086;50.126;8.710;2024-03-17T03:26:15;5.87;87.29
67157;SHT31;54086;50.126;8.710;2024-03-17T03:28:40;5.85;87.22
67157;SHT31;54086;50.126;8.710;2024-03-17T03:31:05;5.87;87.07
67157;SHT31;54086;50.126;8.710;2024-03-17T03:33:32;5.77;87.32
67157;SHT31;54086;50.126;8.710;2024-03-17T03:35:57;5.87;87.23
67157;SHT31;54086;50.126;8.710;2024-03-17T03:38:23;5.79;87.35
67157;SHT31;54086;50.126;8.710;2024-03-17T03:40:48;5.77;87.15
67157;SHT31;54086;50.126;8.710;2024-03-17T03:43:14;5.67;87.36
67157;SHT31;54086;50.126;8.710;2024-03-17T03:45:40;5.62;87.54
67157;SHT31;54086;50.126;8.710;2024-03-17T03:48:07;5.56;88.01
67157;SHT31;54086;50.126;8.710;2024-03-17T03:50:40;5.56;87.68
67157;SHT31;54086;50.126;8.710;2024-03-17T03:53:05;5.56;87.76
67157;SHT31;54086;50.126;8.710;2024-03-17T03:55:31;5.50;87.70
67157;SHT31;54086;50.126;8.710;2024-03-17T03:57:56;5.56;87.83
67157;SHT31;54086;50.126;8.710;2024-03-17T04:00:22;5.59;87.84
67157;SHT31;54086;50.126;8.710;2024-03-17T04:02:50;5.48;88.07
67157;SHT31;54086;50.126;8.710;2024-03-17T04:05:16;5.65;87.86
67157;SHT31;54086;50.126;8.710;2024-03-17T04:07:41;5.62;87.60
67157;SHT31;54086;50.126;8.710;2024-03-17T04:10:09;5.49;87.81
67157;SHT31;54086;50.126;8.710;2024-03-17T04:12:35;5.48;88.18
67157;SHT31;54086;50.126;8.710;2024-03-17T04:15:01;5.60;88.13
67157;SHT31;54086;50.126;8.710;2024-03-17T04:17:27;5.52;88.24
67157;SHT31;54086;50.126;8.710;2024-03-17T04:19:53;5.24;88.80
67157;SHT31;54086;50.126;8.710;2024-03-17T04:22:20;5.24;89.03
67157;SHT31;54086;50.126;8.710;2024-03-17T04:24:48;5.24;89.11
67157;SHT31;54086;50.126;8.710;2024-03-17T04:27:19;5.17;89.66
67157;SHT31;54086;50.126;8.710;2024-03-17T04:29:46;5.11;89.51
67157;SHT31;54086;50.126;8.710;2024-03-17T04:32:13;5.14;89.95
67157;SHT31;54086;50.126;8.710;2024-03-17T04:34:38;5.12;89.95
67157;SHT31;54086;50.126;8.710;2024-03-17T04:37:04;5.14;90.03
67157;SHT31;54086;50.126;8.710;2024-03-17T04:39:29;5.08;89.95
67157;SHT31;54086;50.126;8.710;2024-03-17T04:41:56;5.07;90.06
67157;SHT31;54086;50.126;8.710;2024-03-17T04:44:22;5.02;90.26
67157;SHT31;54086;50.126;8.710;2024-03-17T04:46:48;4.98;90.39
67157;SHT31;54086;50.126;8.710;2024-03-17T04:49:13;4.85;90.67
67157;SHT31;54086;50.126;8.710;2024-03-17T04:51:38;4.83;90.85
67157;SHT31;54086;50.126;8.710;2024-03-17T04:54:04;4.88;90.68
67157;SHT31;54086;50.126;8.710;2024-03-17T04:56:32;4.85;90.99
67157;SHT31;54086;50.126;8.710;2024-03-17T04:58:57;4.88;91.27
67157;SHT31;54086;50.126;8.710;2024-03-17T05:01:23;4.85;91.25
67157;SHT31;54086;50.126;8.710;2024-03-17T05:03:51;4.92;91.25
67157;SHT31;54086;50.126;8.710;2024-03-17T05:06:16;4.83;91.63
67157;SHT31;54086;50.126;8.710;2024-03-17T05:08:42;4.90;91.50
67157;SHT31;54086;50.126;8.710;2024-03-17T05:11:08;4.76;91.52
67157;SHT31;54086;50.126;8.710;2024-03-17T05:13:35;4.81;91.53
67157;SHT31;54086;50.126;8.710;2024-03-17T05:16:02;4.80;91.23
67157;SHT31;54086;50.126;8.710;2024-03-17T05:18:29;4.84;90.85
67157;SHT31;54086;50.126;8.710;2024-03-17T05:21:03;4.85;90.65
67157;SHT31;54086;50.126;8.710;2024-03-17T05:23:29;4.84;90.53
67157;SHT31;54086;50.126;8.710;2024-03-17T05:25:56;4.84;90.57
67157;SHT31;54086;50.126;8.710;2024-03-17T05:28:23;4.92;90.53
67157;SHT31;54086;50.126;8.710;2024-03-17T05:30:49;4.85;90.74
67157;SHT31;54086;50.126;8.710;2024-03-17T05:33:19;4.90;90.76
67157;SHT31;54086;50.126;8.710;2024-03-17T05:36:00;4.94;90.56
67157;SHT31;54086;50.126;8.710;2024-03-17T05:38:29;4.95;90.62
67157;SHT31;54086;50.126;8.710;2024-03-17T05:40:58;4.90;90.58
67157;SHT31;54086;50.126;8.710;2024-03-17T05:43:25;4.90;90.66
67157;SHT31;54086;50.126;8.710;2024-03-17T05:45:52;5.07;90.39
67157;SHT31;54086;50.126;8.710;2024-03-17T05:48:18;4.92;90.73
67157;SHT31;54086;50.126;8.710;2024-03-17T05:50:43;4.92;90.76
67157;SHT31;54086;50.126;8.710;2024-03-17T05:53:08;4.84;90.89
67157;SHT31;54086;50.126;8.710;2024-03-17T05:55:37;4.80;91.15
67157;SHT31;54086;50.126;8.710;2024-03-17T05:58:03;4.77;91.47
67157;SHT31;54086;50.126;8.710;2024-03-17T06:00:28;4.85;91.23
67157;SHT31;54086;50.126;8.710;2024-03-17T06:02:55;4.81;91.29
67157;SHT31;54086;50.126;8.710;2024-03-17T06:05:20;4.87;91.31
67157;SHT31;54086;50.126;8.710;2024-03-17T06:07:46;4.94;91.36
67157;SHT31;54086;50.126;8.710;2024-03-17T06:10:12;4.87;91.19
67157;SHT31;54086;50.126;8.710;2024-03-17T06:12:37;4.95;91.04
67157;SHT31;54086;50.126;8.710;2024-03-17T06:15:04;4.92;90.76
67157;SHT31;54086;50.126;8.710;2024-03-17T06:17:29;4.97;90.79
67157;SHT31;54086;50.126;8.710;2024-03-17T06:19:56;5.01;90.77
67157;SHT31;54086;50.126;8.710;2024-03-17T06:22:22;5.02;90.63
67157;SHT31;54086;50.126;8.710;2024-03-17T06:24:48;4.98;90.80
67157;SHT31;54086;50.126;8.710;2024-03-17T06:27:14;4.97;90.98
67157;SHT31;54086;50.126;8.710;2024-03-17T06:29:41;5.00;90.60
67157;SHT31;54086;50.126;8.710;2024-03-17T06:32:08;5.17;90.34
67157;SHT31;54086;50.126;8.710;2024-03-17T06:34:33;5.18;90.44
67157;SHT31;54086;50.126;8.710;2024-03-17T06:37:00;5.25;90.00
67157;SHT31;54086;50.126;8.710;2024-03-17T06:39:25;5.27;89.82
67157;SHT31;54086;50.126;8.710;2024-03-17T06:41:51;5.14;89.99
67157;SHT31;54086;50.126;8.710;2024-03-17T06:44:16;5.01;90.31
67157;SHT31;54086;50.126;8.710;2024-03-17T06:46:42;5.08;89.94
67157;SHT31;54086;50.126;8.710;2024-03-17T06:49:09;5.07;90.10
67157;SHT31;54086;50.126;8.710;2024-03-17T06:51:34;5.10;89.94
67157;SHT31;54086;50.126;8.710;2024-03-17T06:54:00;5.22;89.57
67157;SHT31;54086;50.126;8.710;2024-03-17T06:56:26;5.21;89.58
67157;SHT31;54086;50.126;8.710;2024-03-17T06:58:51;5.29;89.07
67157;SHT31;54086;50.126;8.710;2024-03-17T07:01:17;5.32;89.55
67157;SHT31;54086;50.126;8.710;2024-03-17T07:03:42;5.35;89.07
67157;SHT31;54086;50.126;8.710;2024-03-17T07:06:09;5.58;89.07
67157;SHT31;54086;50.126;8.710;2024-03-17T07:08:35;5.66;88.33
67157;SHT31;54086;50.126;8.710;2024-03-17T07:11:01;5.58;88.10
67157;SHT31;54086;50.126;8.710;2024-03-17T07:13:46;5.69;87.65
67157;SHT31;54086;50.126;8.710;2024-03-17T07:16:11;5.69;87.16
67157;SHT31;54086;50.126;8.710;2024-03-17T07:18:37;5.80;86.85
67157;SHT31;54086;50.126;8.710;2024-03-17T07:21:03;5.90;86.81
67157;SHT31;54086;50.126;8.710;2024-03-17T07:23:29;5.99;85.96
67157;SHT31;54086;50.126;8.710;2024-03-17T07:25:59;6.04;85.73
67157;SHT31;54086;50.126;8.710;2024-03-17T07:28:25;6.14;85.57
67157;SHT31;54086;50.126;8.710;2024-03-17T07:30:53;6.07;85.46
67157;SHT31;54086;50.126;8.710;2024-03-17T07:33:20;6.10;85.11
67157;SHT31;54086;50.126;8.710;2024-03-17T07:35:58;6.14;85.35
67157;SHT31;54086;50.126;8.710;2024-03-17T07:38:26;6.44;84.99
67157;SHT31;54086;50.126;8.710;2024-03-17T07:41:03;6.49;84.80
67157;SHT31;54086;50.126;8.710;2024-03-17T07:43:30;6.55;84.76
67157;SHT31;54086;50.126;8.710;2024-03-17T07:46:07;6.65;84.19
67157;SHT31;54086;50.126;8.710;2024-03-17T07:48:36;7.34;83.34
67157;SHT31;54086;50.126;8.710;2024-03-17T07:51:07;7.71;81.36
67157;SHT31;54086;50.126;8.710;2024-03-17T07:53:35;8.32;79.90
67157;SHT31;54086;50.126;8.710;2024-03-17T07:56:05;8.30;79.98
67157;SHT31;54086;50.126;8.710;2024-03-17T07:58:32;8.98;78.18
67157;SHT31;54086;50.126;8.710;2024-03-17T08:00:59;8.60;77.08
67157;SHT31;54086;50.126;8.710;2024-03-17T08:03:28;9.39;76.69
67157;SHT31;54086;50.126;8.710;2024-03-17T08:05:54;9.47;75.80
67157;SHT31;54086;50.126;8.710;2024-03-17T08:08:20;9.42;75.50
67157;SHT31;54086;50.126;8.710;2024-03-17T08:10:46;9.71;75.23
67157;SHT31;54086;50.126;8.710;2024-03-17T08:13:14;9.61;75.21
67157;SHT31;54086;50.126;8.710;2024-03-17T08:15:42;9.66;74.63
67157;SHT31;54086;50.126;8.710;2024-03-17T08:18:08;9.53;73.96
67157;SHT31;54086;50.126;8.710;2024-03-17T08:20:41;10.12;73.50
67157;SHT31;54086;50.126;8.710;2024-03-17T08:23:07;10.02;73.47
67157;SHT31;54086;50.126;8.710;2024-03-17T08:25:33;10.66;72.54
67157;SHT31;54086;50.126;8.710;2024-03-17T08:28:00;10.70;72.24
67157;SHT31;54086;50.126;8.710;2024-03-17T08:30:25;10.14;72.92
67157;SHT31;54086;50.126;8.710;2024-03-17T08:32:50;11.03;71.50
67157;SHT31;54086;50.126;8.710;2024-03-17T08:35:16;11.38;70.16
67157;SHT31;54086;50.126;8.710;2024-03-17T08:37:41;11.26;70.75
67157;SHT31;54086;50.126;8.710;2024-03-17T08:40:07;10.83;71.14
67157;SHT31;54086;50.126;8.710;2024-03-17T08:42:33;10.90;71.31
67157;SHT31;54086;50.126;8.710;2024-03-17T08:44:58;10.90;71.62
67157;SHT31;54086;50.126;8.710;2024-03-17T08:47:24;11.42;70.28
67157;SHT31;54086;50.126;8.710;2024-03-17T08:49:52;11.13;70.06
67157;SHT31;54086;50.126;8.710;2024-03-17T08:52:18;11.03;70.90
67157;SHT31;54086;50.126;8.710;2024-03-17T08:54:49;11.24;69.86
67157;SHT31;54086;50.126;8.710;2024-03-17T08:57:17;11.21;70.07
67157;SHT31;54086;50.126;8.710;2024-03-17T08:59:46;11.48;69.99
67157;SHT31;54086;50.126;8.710;2024-03-17T09:02:13;11.71;69.38
67157;SHT31;54086;50.126;8.710;2024-03-17T09:04:42;11.65;69.24
67157;SHT31;54086;50.126;8.710;2024-03-17T09:07:08;11.54;69.73
67157;SHT31;54086;50.126;8.710;2024-03-17T09:09:33;11.13;70.49
67157;SHT31;54086;50.126;8.710;2024-03-17T09:11:59;10.89;70.97
67157;SHT31;54086;50.126;8.710;2024-03-17T09:14:24;10.41;71.91
67157;SHT31;54086;50.126;8.710;2024-03-17T09:16:50;10.83;71.35
67157;SHT31;54086;50.126;8.710;2024-03-17T09:19:15;10.68;71.58
67157;SHT31;54086;50.126;8.710;2024-03-17T09:21:41;11.34;70.62
67157;SHT31;54086;50.126;8.710;2024-03-17T09:24:07;11.48;69.68
67157;SHT31;54086;50.126;8.710;2024-03-17T09:26:36;11.45;69.73
67157;SHT31;54086;50.126;8.710;2024-03-17T09:29:04;11.44;69.76
67157;SHT31;54086;50.126;8.710;2024-03-17T09:31:30;11.67;69.47
67157;SHT31;54086;50.126;8.710;2024-03-17T09:33:55;11.37;69.58
67157;SHT31;54086;50.126;8.710;2024-03-17T09:36:21;11.69;69.43
67157;SHT31;54086;50.126;8.710;2024-03-17T09:38:46;12.22;68.20
67157;SHT31;54086;50.126;8.710;2024-03-17T09:43:44;12.58;67.73
67157;SHT31;54086;50.126;8.710;2024-03-17T09:46:11;12.09;68.31
67157;SHT31;54086;50.126;8.710;2024-03-17T09:48:37;11.96;68.15
67157;SHT31;54086;50.126;8.710;2024-03-17T09:51:03;11.69;69.35
67157;SHT31;54086;50.126;8.710;2024-03-17T09:53:30;12.38;68.25
67157;SHT31;54086;50.126;8.710;2024-03-17T09:56:03;12.84;67.07
67157;SHT31;54086;50.126;8.710;2024-03-17T09:58:31;12.83;66.73
67157;SHT31;54086;50.126;8.710;2024-03-17T10:00:56;13.04;66.39
67157;SHT31;54086;50.126;8.710;2024-03-17T10:06:20;12.88;66.70
67157;SHT31;54086;50.126;8.710;2024-03-17T10:08:49;12.98;66.66
67157;SHT31;54086;50.126;8.710;2024-03-17T10:11:17;12.78;67.14
67157;SHT31;54086;50.126;8.710;2024-03-17T10:13:43;12.68;67.39
67157;SHT31;54086;50.126;8.710;2024-03-17T10:16:22;12.27;67.85
67157;SHT31;54086;50.126;8.710;2024-03-17T10:18:48;12.17;68.10
67157;SHT31;54086;50.126;8.710;2024-03-17T10:21:25;12.16;68.24
67157;SHT31;54086;50.126;8.710;2024-03-17T10:24:13;12.12;68.58
67157;SHT31;54086;50.126;8.710;2024-03-17T10:26:49;12.50;67.91
67157;SHT31;54086;50.126;8.710;2024-03-17T10:29:26;12.63;67.43
67157;SHT31;54086;50.126;8.710;2024-03-17T10:31:52;12.67;67.62
67157;SHT31;54086;50.126;8.710;2024-03-17T10:34:19;12.76;67.16
67157;SHT31;54086;50.126;8.710;2024-03-17T10:36:45;12.38;68.15
67157;SHT31;54086;50.126;8.710;2024-03-17T10:39:25;12.51;68.22
67157;SHT31;54086;50.126;8.710;2024-03-17T10:42:02;12.64;67.98
67157;SHT31;54086;50.126;8.710;2024-03-17T10:44:34;13.09;67.32
67157;SHT31;54086;50.126;8.710;2024-03-17T10:47:01;12.76;67.41
67157;SHT31;54086;50.126;8.710;2024-03-17T10:49:34;13.35;66.56
67157;SHT31;54086;50.126;8.710;2024-03-17T10:52:15;13.65;66.30
67157;SHT31;54086;50.126;8.710;2024-03-17T10:54:47;13.45;65.35
67157;SHT31;54086;50.126;8.710;2024-03-17T10:59:58;14.62;64.31
67157;SHT31;54086;50.126;8.710;2024-03-17T11:02:26;14.51;64.24
67157;SHT31;54086;50.126;8.710;2024-03-17T11:05:02;14.05;64.82
67157;SHT31;54086;50.126;8.710;2024-03-17T11:07:29;14.29;64.20
67157;SHT31;54086;50.126;8.710;2024-03-17T11:09:58;14.34;64.62
67157;SHT31;54086;50.126;8.710;2024-03-17T11:12:51;13.84;65.20
67157;SHT31;54086;50.126;8.710;2024-03-17T11:17:53;13.39;66.08
67157;SHT31;54086;50.126;8.710;2024-03-17T11:20:26;13.38;66.46
67157;SHT31;54086;50.126;8.710;2024-03-17T11:22:55;13.15;66.83
67157;SHT31;54086;50.126;8.710;2024-03-17T11:28:13;13.47;66.97
67157;SHT31;54086;50.126;8.710;2024-03-17T11:30:49;13.38;66.97
67157;SHT31;54086;50.126;8.710;2024-03-17T11:41:35;13.14;67.71
67157;SHT31;54086;50.126;8.710;2024-03-17T11:44:30;13.38;67.82
67157;SHT31;54086;50.126;8.710;2024-03-17T11:47:00;13.50;67.50
67157;SHT31;54086;50.126;8.710;2024-03-17T11:52:05;13.50;67.57
67157;SHT31;54086;50.126;8.710;2024-03-17T11:54:37;13.63;67.25
67157;SHT31;54086;50.126;8.710;2024-03-17T11:57:08;14.00;66.56
67157;SHT31;54086;50.126;8.710;2024-03-17T11:59:37;14.08;66.22
67157;SHT31;54086;50.126;8.710;2024-03-17T12:02:10;14.51;65.12
67157;SHT31;54086;50.126;8.710;2024-03-17T12:04:40;14.90;63.54
67157;SHT31;54086;50.126;8.710;2024-03-17T12:07:13;15.26;62.98
67157;SHT31;54086;50.126;8.710;2024-03-17T12:09:41;15.19;63.20
67157;SHT31;54086;50.126;8.710;2024-03-17T12:12:11;14.71;64.04
67157;SHT31;54086;50.126;8.710;2024-03-17T12:14:37;14.92;63.83
67157;SHT31;54086;50.126;8.710;2024-03-17T12:17:05;15.02;64.27
67157;SHT31;54086;50.126;8.710;2024-03-17T12:19:32;14.68;64.55
67157;SHT31;54086;50.126;8.710;2024-03-17T12:21:59;14.62;64.97
67157;SHT31;54086;50.126;8.710;2024-03-17T12:24:26;14.44;65.18
67157;SHT31;54086;50.126;8.710;2024-03-17T12:26:53;14.24;65.53
67157;SHT31;54086;50.126;8.710;2024-03-17T12:29:29;14.00;66.66
67157;SHT31;54086;50.126;8.710;2024-03-17T12:31:57;13.96;66.80
67157;SHT31;54086;50.126;8.710;2024-03-17T12:34:25;13.83;66.62
67157;SHT31;54086;50.126;8.710;2024-03-17T12:36:52;13.81;66.65
67157;SHT31;54086;50.126;8.710;2024-03-17T12:39:25;13.74;67.05
67157;SHT31;54086;50.126;8.710;2024-03-17T12:42:05;13.96;66.98
67157;SHT31;54086;50.126;8.710;2024-03-17T12:44:33;14.04;66.61
67157;SHT31;54086;50.126;8.710;2024-03-17T12:47:03;13.76;66.78
67157;SHT31;54086;50.126;8.710;2024-03-17T12:49:31;13.88;66.96
67157;SHT31;54086;50.126;8.710;2024-03-17T12:51:57;14.05;66.61
67157;SHT31;54086;50.126;8.710;2024-03-17T12:54:25;13.93;66.91
67157;SHT31;54086;50.126;8.710;2024-03-17T12:57:02;13.83;66.73
67157;SHT31;54086;50.126;8.710;2024-03-17T12:59:47;14.11;67.09
67157;SHT31;54086;50.126;8.710;2024-03-17T13:02:21;13.78;67.32
67157;SHT31;54086;50.126;8.710;2024-03-17T13:05:05;14.25;66.45
67157;SHT31;54086;50.126;8.710;2024-03-17T13:07:31;14.62;65.83
67157;SHT31;54086;50.126;8.710;2024-03-17T13:09:56;14.85;65.38
67157;SHT31;54086;50.126;8.710;2024-03-17T13:12:21;15.04;64.77
67157;SHT31;54086;50.126;8.710;2024-03-17T13:14:47;15.04;64.83
67157;SHT31;54086;50.126;8.710;2024-03-17T13:17:15;14.45;65.57
67157;SHT31;54086;50.126;8.710;2024-03-17T13:19:47;14.68;65.34
67157;SHT31;54086;50.126;8.710;2024-03-17T13:22:13;14.59;65.60
67157;SHT31;54086;50.126;8.710;2024-03-17T13:24:39;14.71;65.37
67157;SHT31;54086;50.126;8.710;2024-03-17T13:27:05;14.68;65.74
67157;SHT31;54086;50.126;8.710;2024-03-17T13:29:34;15.20;64.83
67157;SHT31;54086;50.126;8.710;2024-03-17T13:32:04;15.79;63.16
67157;SHT31;54086;50.126;8.710;2024-03-17T13:34:30;15.88;62.92
67157;SHT31;54086;50.126;8.710;2024-03-17T13:36:55;15.47;63.36
67157;SHT31;54086;50.126;8.710;2024-03-17T13:39:21;15.64;63.61
67157;SHT31;54086;50.126;8.710;2024-03-17T13:41:47;15.55;63.77
67157;SHT31;54086;50.126;8.710;2024-03-17T13:44:15;15.08;64.09
67157;SHT31;54086;50.126;8.710;2024-03-17T13:46:40;15.03;64.80
67157;SHT31;54086;50.126;8.710;2024-03-17T13:49:09;15.03;64.64
67157;SHT31;54086;50.126;8.710;2024-03-17T13:51:36;14.97;65.25
67157;SHT31;54086;50.126;8.710;2024-03-17T13:54:01;14.64;65.77
67157;SHT31;54086;50.126;8.710;2024-03-17T13:56:27;14.69;66.69
67157;SHT31;54086;50.126;8.710;2024-03-17T13:58:53;14.59;66.49
67157;SHT31;54086;50.126;8.710;2024-03-17T14:01:18;14.51;66.01
67157;SHT31;54086;50.126;8.710;2024-03-17T14:03:45;14.17;66.41
67157;SHT31;54086;50.126;8.710;2024-03-17T14:06:11;14.08;66.97
67157;SHT31;54086;50.126;8.710;2024-03-17T14:08:36;14.31;66.39
67157;SHT31;54086;50.126;8.710;2024-03-17T14:11:02;14.31;66.57
67157;SHT31;54086;50.126;8.710;2024-03-17T14:13:29;14.39;66.54
67157;SHT31;54086;50.126;8.710;2024-03-17T14:15:58;14.55;66.33
67157;SHT31;54086;50.126;8.710;2024-03-17T14:18:24;14.46;66.35
67157;SHT31;54086;50.126;8.710;2024-03-17T14:20:49;14.31;66.72
67157;SHT31;54086;50.126;8.710;2024-03-17T14:23:18;14.20;67.01
67157;SHT31;54086;50.126;8.710;2024-03-17T14:25:43;14.38;66.94
67157;SHT31;54086;50.126;8.710;2024-03-17T14:28:09;14.56;66.41
67157;SHT31;54086;50.126;8.710;2024-03-17T14:30:34;14.64;66.52
67157;SHT31;54086;50.126;8.710;2024-03-17T14:33:00;14.55;66.73
67157;SHT31;54086;50.126;8.710;2024-03-17T14:35:25;14.41;66.89
67157;SHT31;54086;50.126;8.710;2024-03-17T14:37:52;14.35;66.94
67157;SHT31;54086;50.126;8.710;2024-03-17T14:40:19;14.14;67.21
67157;SHT31;54086;50.126;8.710;2024-03-17T14:42:50;14.04;67.72
67157;SHT31;54086;50.126;8.710;2024-03-17T14:45:19;14.07;67.62
67157;SHT31;54086;50.126;8.710;2024-03-17T14:47:45;14.07;67.68
67157;SHT31;54086;50.126;8.710;2024-03-17T14:50:11;14.05;67.67
67157;SHT31;54086;50.126;8.710;2024-03-17T14:52:37;14.10;67.65
67157;SHT31;54086;50.126;8.710;2024-03-17T14:55:03;14.17;67.75
67157;SHT31;54086;50.126;8.710;2024-03-17T14:57:30;14.13;67.65
67157;SHT31;54086;50.126;8.710;2024-03-17T14:59:56;14.14;67.76
67157;SHT31;54086;50.126;8.710;2024-03-17T15:02:21;14.11;67.81
67157;SHT31;54086;50.126;8.710;2024-03-17T15:04:49;14.01;68.00
67157;SHT31;54086;50.126;8.710;2024-03-17T15:07:17;13.98;67.95
67157;SHT31;54086;50.126;8.710;2024-03-17T15:09:42;13.91;68.05
67157;SHT31;54086;50.126;8.710;2024-03-17T15:12:07;13.94;68.19
67157;SHT31;54086;50.126;8.710;2024-03-17T15:14:33;13.90;68.25
67157;SHT31;54086;50.126;8.710;2024-03-17T15:16:58;14.07;68.19
67157;SHT31;54086;50.126;8.710;2024-03-17T15:19:24;13.98;68.18
67157;SHT31;54086;50.126;8.710;2024-03-17T15:21:50;13.91;68.39
67157;SHT31;54086;50.126;8.710;2024-03-17T15:24:16;13.91;68.46
67157;SHT31;54086;50.126;8.710;2024-03-17T15:26:42;13.84;68.69
67157;SHT31;54086;50.126;8.710;2024-03-17T15:29:08;13.83;68.72
67157;SHT31;54086;50.126;8.710;2024-03-17T15:31:33;13.90;68.73
67157;SHT31;54086;50.126;8.710;2024-03-17T15:33:59;14.10;68.56
67157;SHT31;54086;50.126;8.710;2024-03-17T15:36:25;14.15;68.70
67157;SHT31;54086;50.126;8.710;2024-03-17T15:38:50;13.81;68.67
67157;SHT31;54086;50.126;8.710;2024-03-17T15:41:16;13.93;68.78
67157;SHT31;54086;50.126;8.710;2024-03-17T15:43:41;13.88;68.50
67157;SHT31;54086;50.126;8.710;2024-03-17T15:46:18;13.98;68.15
67157;SHT31;54086;50.126;8.710;2024-03-17T15:48:45;14.05;68.59
67157;SHT31;54086;50.126;8.710;2024-03-17T15:51:11;14.03;68.64
67157;SHT31;54086;50.126;8.710;2024-03-17T15:53:36;14.00;68.98
67157;SHT31;54086;50.126;8.710;2024-03-17T15:56:03;13.77;69.70
67157;SHT31;54086;50.126;8.710;2024-03-17T15:58:30;13.84;69.86
67157;SHT31;54086;50.126;8.710;2024-03-17T16:00:56;13.78;70.07
67157;SHT31;54086;50.126;8.710;2024-03-17T16:03:33;13.63;70.40
67157;SHT31;54086;50.126;8.710;2024-03-17T16:06:04;13.56;70.68